EGBBEGNT

Guest
Details From EGBB - Birmingham
To EGNT - Newcastle
Flight Number -
Tags generated
Created
Modified
Stats Distance 155 nm / 287 km
Max Altitude 15,000 ft / 4,572 m
Waypoints 3
Social Downloads 6
Likes 0
Share VATSIM

Download

Looking for another format? Having issues loading an existing format? Contact us
Advertisement - Login to hide

Notes

Basic altitude profile: - Ascent Rate: 2500ft/min - Ascent Speed: 250kts - Cruise Altitude: 23000ft - Cruise Speed: 420kts - Descent Rate: 1500ft/min - Descent Speed: 250kts Options: - Use NATs: yes - Use PACOTS: yes - Use low airways: yes - Use high airways: yes

Route

EGBB LBA EGNT

ID Type Via Altitude Latitude Longitude Leg Dist Tot Dist Heading (true) Name
O EGBB APT - 0 ft / 0 m 52.45597˚ -1.75038˚ - 0 nm - Birmingham
LBA NDB - 15,000 ft / 4,572 m 53.86499˚ -1.65289˚ 84 nm 84 nm 2° / 2° LEEDS BRADFORD NDB
O EGNT APT - 0 ft / 0 m 55.03792˚ -1.68983˚ 70 nm 155 nm 359° / 359° Newcastle

Altitude Profile

Advertisement - Login to hide

EGBB

Details ICAO EGBB (BHX)
Name Birmingham
Region United Kingdom
Timezone Europe/London (UTC+0.0)
Stats Elevation 327 ft / 100 m (AMSL)
Location 52.455966° -1.750378°
Runways 1
Magnetic Variation 1.139° W

METAR

EGBB 152320Z 33008KT CAVOK 01/M01 Q1012

Decode

TAF

TAF EGBB 151703Z 1518/1618 31009KT 9999 FEW025 TEMPO 1610/1618 BKN012 PROB40 TEMPO 1611/1618 4000 RADZ BKN009

Decode

Departure Runways

ID Width Length Bearing (true) Bearing (mag) Surface Threshold Offset Overrun Length
15 151 ft / 46 m 8,477 ft / 2,584 m 145.87° 147.01° Asphalt 925 ft / 282 m 0 ft / 0 m
33 151 ft / 46 m 8,477 ft / 2,584 m 325.89° 327.03° Asphalt 958 ft / 292 m 0 ft / 0 m

EGNT

Details ICAO EGNT (NCL)
Name Newcastle
Region United Kingdom
Timezone Europe/London (UTC+0.0)
Stats Elevation 266 ft / 81 m (AMSL)
Location 55.037922° -1.689833°
Runways 1
Magnetic Variation 1.477° W

METAR

EGNT 152320Z 28008KT CAVOK 01/M02 Q1010

Decode

TAF

TAF EGNT 151659Z 1518/1618 29008KT 9999 SCT025

Decode

Destination Runways

ID Width Length Bearing (true) Bearing (mag) Surface Threshold Offset Overrun Length
07 151 ft / 46 m 7,621 ft / 2,323 m 65.13° 66.61° Asphalt 394 ft / 120 m 108 ft / 33 m
25 151 ft / 46 m 7,621 ft / 2,323 m 245.16° 246.64° Asphalt 446 ft / 136 m 56 ft / 17 m

Approach Navaids

Runway Type Ident Frequency Range Bearing (true) Bearing (mag) Slope Elevation
07 Localiser INC 111.50 MHz 18 nm / 33 km 65.18° 66.66° - 297 ft / 91 m (AMSL)
07 Glidescope INC 111.50 MHz 10 nm / 19 km 65.15° 66.63° 3.00° 297 ft / 91 m (AMSL)
07 DME INC 111.50 MHz 18 nm / 33 km - - - 256 ft / 78 m (AMSL)
25 Localiser INWC 111.50 MHz 18 nm / 33 km 245.12° 246.59° - 279 ft / 85 m (AMSL)
25 Glidescope INWC 111.50 MHz 10 nm / 19 km 245.15° 246.63° 3.00° 297 ft / 91 m (AMSL)
25 DME INWC 111.50 MHz 18 nm / 33 km - - - 256 ft / 78 m (AMSL)

Popular Alternatives